Aviation Digital Data Service (ADDS)

Output produced by METARs form (0419 UTC 26 June 2019)
found at http://www.aviationweather.gov/metar/data/
 
Forecast for: YMAV (AVALON AIRPORT , AU)
Text: TAF YMAV 252317Z 2600/2624 01008KT CAVOK
Forecast period: 0000 UTC 26 June 2019 to 0000 UTC 27 June 2019
Forecast type: FROM: standard forecast or significant change
Winds: from the N (10 degrees) at 9 MPH (8 knots; 4.1 m/s)
Visibility: 6 or more miles 10+ km)
Ceiling: unknown
Clouds: missing
Weather: NSW  (no significant weather)